• Join FlightAware (Why Join?)
  • Login
  • US Flag 
02:34AM EDT


 

Airport Tracker/Info


-or-


 

Live Flight TrackerFlight Track Log ✈ SWA234 ✈ 31-Jul-2014 ✈ KATL - KSFO

Flight Track Log - Related Links

Times and Time Zones

All times are in EDT time to prevent confusion due to time zone crossing. See the SWA234 flight status page for this flight to view local times or setup timezone preferences in your user account.

Time Position Orientation Groundspeed Altitude Reporting Facility
EDT Latitude Longitude Course Direction KTS MPH feet Rate Location/Type
05:35PM 33.6500 -84.3833 59° Northeast 165 190 2,700  Level Atlanta TRACON
05:36PM 33.6833 -84.3167 59° Northeast 243 280 4,400 2,100 Climbing Atlanta TRACON
05:37PM 33.7000 -84.2333 76° East 281 323 7,000 2,820 Climbing Atlanta TRACON
05:38PM 33.7667 -84.1667 40° Northeast 306 352 9,800 1,380 Climbing Atlanta TRACON
05:39PM 33.8500 -84.1333 18° North 304 350 10,000 120 Climbing Atlanta TRACON
05:40PM 33.9333 -84.1500 351° North 297 342 10,100 1,500 Climbing Atlanta TRACON
05:41PM 34.0217 -84.1992 335° Northwest 321 369 13,400 1,920 Climbing Atlanta Center
05:42PM 34.0131 -84.2994 264° West 281 323 14,400 1,500 Climbing Atlanta Center
05:43PM 33.9772 -84.4169 250° West 310 357 16,500 2,100 Climbing Atlanta Center
05:44PM 33.9478 -84.5397 254° West 349 402 18,700 2,160 Climbing Atlanta Center
05:45PM 33.9136 -84.6697 252° West 382 440 20,900 1,980 Climbing Atlanta Center
05:46PM 33.8797 -84.7944 252° West 394 453 22,700 1,020 Climbing Atlanta Center
05:47PM 33.8475 -84.9167 252° West 411 473 23,000 900 Climbing Atlanta Center
05:48PM 33.8111 -85.0489 252° West 417 480 24,600 1,620 Climbing Atlanta Center
05:49PM 33.7764 -85.1858 253° West 423 487 26,300 1,560 Climbing Atlanta Center
05:51PM 33.8089 -85.4739 278° West 436 502 29,300 1,560 Climbing Atlanta Center
05:52PM 33.8342 -85.6169 282° West 441 507 31,100 1,320 Climbing Atlanta Center
05:53PM 33.8722 -85.7528 289° West 435 501 32,000 420 Climbing Atlanta Center
05:54PM 33.9158 -85.8936 290° West 424 488 32,000  Level Atlanta Center
05:55PM 33.9578 -86.0247 291° West 424 488 32,000  Level Atlanta Center
05:56PM 33.9972 -86.1586 290° West 424 488 32,000  Level Atlanta Center
05:57PM 34.0347 -86.2897 289° West 424 488 32,000  Level Atlanta Center
05:58PM 34.0717 -86.4236 288° West 424 488 32,000  Level Atlanta Center
05:59PM 34.1108 -86.5553 290° West 424 488 32,000  Level Atlanta Center
06:00PM 34.1303 -86.6328 287° West 418 481 32,000  Level Memphis Center
06:01PM 34.1683 -86.7639 289° West 418 481 32,000  Level Memphis Center
06:02PM 34.2061 -86.8986 289° West 419 482 32,000  Level Memphis Center
06:03PM 34.2425 -87.0336 288° West 420 483 32,000  Level Memphis Center
06:04PM 34.2794 -87.1669 289° West 420 483 32,000  Level Memphis Center
06:05PM 34.3158 -87.3000 288° West 420 483 32,000  Level Memphis Center
06:06PM 34.3589 -87.4600 288° West 420 483 32,000 480 Level Memphis Center
06:07PM 34.3961 -87.5944 289° West 419 482 33,000 1,200 Climbing Memphis Center
06:08PM 34.4333 -87.7303 288° West 424 488 34,600 1,440 Climbing Memphis Center
06:09PM 34.4711 -87.8706 288° West 405 466 36,000 660 Climbing Memphis Center
06:10PM 34.5050 -87.9981 288° West 403 464 36,000  Level Memphis Center
06:11PM 34.5394 -88.1269 288° West 403 464 36,000  Level Memphis Center
06:12PM 34.5733 -88.2558 288° West 403 464 36,000  Level Memphis Center
06:13PM 34.6072 -88.3850 288° West 403 464 36,000  Level Memphis Center
06:14PM 34.6442 -88.5258 288° West 402 463 36,000  Level Memphis Center
06:15PM 34.6781 -88.6544 288° West 402 463 36,000  Level Memphis Center
06:16PM 34.7108 -88.7825 287° West 402 463 36,000  Level Memphis Center
06:17PM 34.7508 -88.9356 288° West 400 460 36,000  Level Memphis Center
06:19PM 34.7831 -89.0631 287° West 399 459 36,000  Level Memphis Center
06:20PM 34.8153 -89.1911 287° West 398 458 36,000  Level Memphis Center
06:21PM 34.8622 -89.3078 296° West 396 456 36,000  Level Memphis Center
06:22PM 34.9347 -89.4106 311° West 403 464 36,000  Level Memphis Center
06:23PM 35.0211 -89.5331 311° West 402 463 36,000  Level Memphis Center
06:24PM 35.0925 -89.6356 310° West 402 463 36,000  Level Memphis Center
06:25PM 35.1336 -89.7564 293° West 400 460 36,000  Level Memphis Center
06:26PM 35.1639 -89.8850 286° West 400 460 36,000  Level Memphis Center
06:27PM 35.1992 -90.0392 286° West 399 459 36,000  Level Memphis Center
06:28PM 35.2283 -90.1692 285° West 399 459 36,000  Level Memphis Center
06:29PM 35.2675 -90.2942 291° West 399 459 36,000  Level Memphis Center
06:30PM 35.3211 -90.4131 299° West 401 461 36,000  Level Memphis Center
06:31PM 35.3728 -90.5344 298° West 401 461 36,000  Level Memphis Center
06:32PM 35.4239 -90.6567 297° West 401 461 36,000  Level Memphis Center
06:33PM 35.4867 -90.8014 298° West 401 461 36,000  Level Memphis Center
06:34PM 35.5400 -90.9208 299° West 401 461 36,000  Level Memphis Center
06:35PM 35.6108 -91.0267 309° West 402 463 36,000  Level Memphis Center
06:36PM 35.6550 -91.1483 294° West 399 459 36,000  Level Memphis Center
06:37PM 35.6817 -91.2783 284° West 398 458 36,000  Level Memphis Center
06:38PM 35.7106 -91.4178 284° West 395 455 36,000  Level Memphis Center
06:39PM 35.7369 -91.5478 284° West 395 455 36,000  Level Memphis Center
06:40PM 35.7694 -91.7050 284° West 397 457 36,000  Level Memphis Center
06:41PM 35.7947 -91.8375 283° West 397 457 36,000  Level Memphis Center
06:42PM 35.8211 -91.9697 284° West 397 457 36,000  Level Memphis Center
06:43PM 35.8472 -92.1019 284° West 397 457 36,000  Level Memphis Center
06:44PM 35.8742 -92.2358 284° West 399 459 36,000  Level Memphis Center
06:45PM 35.8992 -92.3678 283° West 399 459 36,000  Level Memphis Center
06:46PM 35.9297 -92.5247 284° West 397 457 36,000  Level Memphis Center
06:48PM 35.9564 -92.6569 284° West 397 457 36,000  Level Memphis Center
06:49PM 35.9817 -92.7894 283° West 397 457 36,000  Level Memphis Center
06:50PM 36.0072 -92.9219 283° West 397 457 36,000  Level Memphis Center
06:51PM 36.0311 -93.0539 283° West 397 457 36,000  Level Memphis Center
06:52PM 36.0608 -93.2122 283° West 397 457 36,000  Level Memphis Center
06:53PM 36.0856 -93.3439 283° West 397 457 36,000  Level Memphis Center
06:54PM 36.1100 -93.4761 283° West 397 457 36,000  Level Memphis Center
06:55PM 36.1342 -93.6089 283° West 397 457 36,000  Level Memphis Center
06:56PM 36.1594 -93.7411 283° West 397 457 36,000  Level Memphis Center
06:57PM 36.1844 -93.8853 282° West 396 456 36,000  Level Memphis Center
06:58PM 36.2089 -94.0178 283° West 396 456 36,000  Level Memphis Center
06:59PM 36.2317 -94.1514 282° West 396 456 36,000  Level Memphis Center
07:00PM 36.2603 -94.3106 283° West 396 456 36,000  Level Memphis Center
07:01PM 36.2839 -94.4422 283° West 394 453 36,000  Level Memphis Center
07:02PM 36.3075 -94.5744 283° West 394 453 36,000  Level Memphis Center
07:03PM 36.3297 -94.7072 282° West 394 453 36,000  Level Memphis Center
07:04PM 36.3531 -94.8394 282° West 394 453 36,000  Level Memphis Center
07:05PM 36.3675 -94.9200 283° West 393 452 36,000  Level Kansas City Center
07:06PM 36.3900 -95.0514 282° West 393 452 36,000  Level Kansas City Center
07:07PM 36.4147 -95.1986 282° West 390 449 36,000  Level Kansas City Center
07:08PM 36.4378 -95.3317 282° West 391 450 36,000  Level Kansas City Center
07:09PM 36.4592 -95.4644 281° West 393 452 36,000  Level Kansas City Center
07:10PM 36.4814 -95.5967 282° West 393 452 36,000  Level Kansas City Center
07:11PM 36.5031 -95.7283 282° West 393 452 36,000  Level Kansas City Center
07:12PM 36.5256 -95.8650 282° West 393 452 36,000  Level Kansas City Center
07:13PM 36.5519 -96.0225 282° West 391 450 36,000  Level Kansas City Center
07:14PM 36.5736 -96.1550 282° West 391 450 36,000  Level Kansas City Center
07:15PM 36.5944 -96.2867 281° West 390 449 36,000  Level Kansas City Center
07:16PM 36.6153 -96.4186 281° West 390 449 36,000  Level Kansas City Center
07:17PM 36.6358 -96.5500 281° West 389 448 36,000  Level Kansas City Center
07:18PM 36.6558 -96.6808 281° West 388 447 36,000  Level Kansas City Center
07:19PM 36.6803 -96.8364 281° West 385 443 36,000  Level Kansas City Center
07:20PM 36.7000 -96.9656 281° West 381 438 36,000 120 Level Kansas City Center
07:21PM 36.7183 -97.0867 281° West 381 438 36,300 600 Climbing Kansas City Center
07:22PM 36.7375 -97.2111 281° West 373 429 37,300 780 Climbing Kansas City Center
07:23PM 36.7608 -97.3603 281° West 372 428 38,000 300 Climbing Kansas City Center
07:24PM 36.7769 -97.4719 280° West 371 427 38,000  Level Kansas City Center
07:25PM 36.7953 -97.5994 280° West 371 427 38,000  Level Kansas City Center
07:26PM 36.8172 -97.7508 280° West 372 428 38,000  Level Kansas City Center
07:27PM 36.8361 -97.8775 281° West 372 428 38,000  Level Kansas City Center
07:28PM 36.8528 -98.0025 279° West 370 426 38,000  Level Kansas City Center
07:29PM 36.8708 -98.1292 280° West 370 426 38,000  Level Kansas City Center
07:30PM 36.8894 -98.2547 281° West 370 426 38,000  Level Kansas City Center
07:32PM 36.9058 -98.3811 279° West 370 426 38,000  Level Kansas City Center
07:33PM 36.9275 -98.5269 281° West 370 426 38,000  Level Kansas City Center
07:34PM 36.9456 -98.6550 280° West 372 428 38,000  Level Kansas City Center
07:35PM 36.9633 -98.7825 280° West 372 428 38,000  Level Kansas City Center
07:36PM 36.9842 -98.9361 280° West 372 428 38,000  Level Kansas City Center
07:37PM 37.0011 -99.0631 280° West 372 428 38,000  Level Kansas City Center
07:38PM 37.0181 -99.1917 279° West 372 428 38,000  Level Kansas City Center
07:39PM 37.0344 -99.3175 279° West 372 428 38,000  Level Kansas City Center
07:40PM 37.0514 -99.4456 279° West 372 428 38,000  Level Kansas City Center
07:41PM 37.0706 -99.5858 280° West 369 425 38,000  Level Kansas City Center
07:42PM 37.0847 -99.7075 278° West 369 425 38,000  Level Kansas City Center
07:43PM 37.1039 -99.8483 280° West 369 425 38,000  Level Kansas City Center
07:44PM 37.1194 -99.9697 279° West 369 425 38,000  Level Kansas City Center
07:45PM 37.1369 -100.1117 279° West 369 425 38,000  Level Kansas City Center
07:46PM 37.1522 -100.2342 279° West 369 425 38,000  Level Kansas City Center
07:47PM 37.1703 -100.3772 279° West 369 425 38,000  Level Kansas City Center
07:48PM 37.1850 -100.4983 279° West 369 425 38,000  Level Kansas City Center
07:49PM 37.2028 -100.6431 279° West 369 425 38,000  Level Kansas City Center
07:50PM 37.2169 -100.7656 278° West 370 426 38,000  Level Kansas City Center
07:51PM 37.2322 -100.8894 279° West 370 426 38,000  Level Kansas City Center
07:52PM 37.2489 -101.0325 278° West 370 426 38,000  Level Kansas City Center
07:53PM 37.2628 -101.1553 278° West 370 426 38,000  Level Kansas City Center
07:54PM 37.2789 -101.2975 278° West 370 426 38,000  Level Kansas City Center
07:55PM 37.2931 -101.4189 278° West 369 425 38,000  Level Kansas City Center
07:56PM 37.3086 -101.5614 278° West 369 425 38,000  Level Kansas City Center
07:57PM 37.3231 -101.6850 278° West 370 426 38,000  Level Kansas City Center
07:58PM 37.3383 -101.8294 278° West 371 427 38,000  Level Kansas City Center
08:00PM 37.3664 -102.0825 278° West 379 436 38,000  Level Denver Center
08:01PM 37.3761 -102.1661 278° West 380 437 38,000  Level Kansas City Center
08:02PM 37.3917 -102.3144 278° West 380 437 38,000  Level Kansas City Center
08:03PM 37.4050 -102.4400 278° West 380 437 38,000  Level Kansas City Center
08:04PM 37.4203 -102.5878 277° West 380 437 38,000  Level Kansas City Center
08:05PM 37.4339 -102.7139 278° West 380 437 38,000  Level Kansas City Center
08:06PM 37.4506 -102.8933 277° West 381 438 38,000  Level Albuquerque Center
08:08PM 37.4628 -103.0253 277° West 381 438 38,000  Level Albuquerque Center
08:09PM 37.4764 -103.1575 277° West 381 438 38,000  Level Albuquerque Center
08:10PM 37.4906 -103.2906 278° West 382 440 38,000  Level Albuquerque Center
08:11PM 37.5031 -103.4258 277° West 387 445 38,000  Level Albuquerque Center
08:12PM 37.5161 -103.5586 277° West 387 445 38,000  Level Albuquerque Center
08:13PM 37.5289 -103.6917 277° West 387 445 38,000  Level Albuquerque Center
08:14PM 37.5425 -103.8389 277° West 387 445 38,000  Level Albuquerque Center
08:15PM 37.5547 -103.9761 276° West 387 445 38,000  Level Albuquerque Center
08:16PM 37.5706 -104.1375 277° West 391 450 38,000  Level Denver Center
08:17PM 37.5839 -104.2933 276° West 380 437 38,000  Level Denver Center
08:18PM 37.5961 -104.4261 277° West 380 437 38,000  Level Denver Center
08:19PM 37.6078 -104.5592 276° West 381 438 38,000  Level Denver Center
08:20PM 37.6194 -104.6922 276° West 381 438 38,000  Level Denver Center
08:21PM 37.6303 -104.8258 276° West 385 443 38,000  Level Denver Center
08:22PM 37.6431 -104.9889 276° West 386 444 38,000  Level Denver Center
08:23PM 37.6544 -105.1244 276° West 387 445 38,000  Level Denver Center
08:24PM 37.6667 -105.2603 277° West 388 447 38,000  Level Denver Center
08:25PM 37.6772 -105.3964 276° West 388 447 38,000  Level Denver Center
08:26PM 37.6875 -105.5328 275° West 389 448 38,000  Level Denver Center
08:27PM 37.6986 -105.6692 276° West 391 450 38,000  Level Denver Center
08:28PM 37.7094 -105.8311 275° West 390 449 38,000  Level Denver Center
08:29PM 37.7197 -105.9675 275° West 390 449 38,000  Level Denver Center
08:30PM 37.7303 -106.1044 276° West 392 451 38,000  Level Denver Center
08:32PM 37.7392 -106.2411 275° West 392 451 38,000  Level Denver Center
08:33PM 37.7517 -106.3978 276° West 396 456 38,000  Level Denver Center
08:34PM 37.7608 -106.5317 275° West 398 458 38,000  Level Denver Center
08:35PM 37.7711 -106.6892 275° West 401 461 38,000  Level Denver Center
08:36PM 37.7800 -106.8228 275° West 401 461 38,000  Level Denver Center
08:37PM 37.7908 -106.9792 275° West 400 460 38,000  Level Denver Center
08:38PM 37.8000 -107.1122 275° West 400 460 38,000  Level Denver Center
08:39PM 37.8092 -107.2672 274° West 400 460 38,000  Level Denver Center
08:40PM 37.8183 -107.4014 275° West 399 459 38,000  Level Denver Center
08:42PM 37.8347 -107.6917 274° West 400 460 38,000  Level Denver Center
08:43PM 37.8453 -107.8472 275° West 398 458 38,000  Level Denver Center
08:44PM 37.8522 -107.9817 274° West 399 459 38,000  Level Denver Center
08:46PM 37.8683 -108.2706 274° West 397 457 38,000  Level Denver Center
08:47PM 37.8772 -108.4286 274° West 401 461 38,000  Level Denver Center
08:48PM 37.8842 -108.5608 274° West 401 461 38,000  Level Denver Center
08:49PM 37.8919 -108.7158 274° West 399 459 38,000  Level Denver Center
08:50PM 37.8983 -108.8519 273° West 399 459 38,000  Level Denver Center
08:51PM 37.9069 -109.0069 274° West 399 459 38,000  Level Denver Center
08:52PM 37.9131 -109.1419 273° West 400 460 38,000  Level Denver Center
08:53PM 37.9208 -109.2997 274° West 402 463 38,000  Level Denver Center
08:54PM 37.9256 -109.4339 273° West 402 463 38,000  Level Denver Center
08:55PM 37.9328 -109.5903 273° West 401 461 38,000  Level Denver Center
08:56PM 37.9392 -109.7258 273° West 402 463 38,000  Level Denver Center
08:57PM 37.9450 -109.8817 273° West 399 459 38,000  Level Denver Center
08:58PM 37.9508 -110.0158 273° West 399 459 38,000  Level Denver Center
08:59PM 37.9547 -110.1486 272° West 397 457 38,000  Level Denver Center
09:01PM 37.9333 -110.2997 260° West 392 451 38,000  Level Denver Center
09:02PM 37.9039 -110.4269 254° West 392 451 38,000  Level Denver Center
09:03PM 37.8742 -110.5642 255° West 393 452 38,000  Level Denver Center
09:04PM 37.8456 -110.6981 255° West 393 452 38,000  Level Denver Center
09:05PM 37.8097 -110.8581 254° West 394 453 38,000  Level Denver Center
09:06PM 37.7806 -110.9908 255° West 394 453 38,000  Level Denver Center
09:07PM 37.7494 -111.1244 254° West 394 453 38,000  Level Denver Center
09:08PM 37.7131 -111.2856 254° West 395 455 38,000  Level Salt Lake Center
09:09PM 37.6842 -111.4222 255° West 397 457 38,000  Level Salt Lake Center
09:10PM 37.6767 -111.5614 266° West 406 467 38,000  Level Salt Lake Center
09:11PM 37.7083 -111.7025 286° West 417 480 38,000  Level Salt Lake Center
09:12PM 37.7536 -111.8375 293° West 417 480 38,000  Level Salt Lake Center
09:13PM 37.8133 -111.9997 295° West 421 484 38,000  Level Salt Lake Center
09:14PM 37.8639 -112.1325 296° West 423 487 38,000  Level Salt Lake Center
09:15PM 37.9142 -112.2647 296° West 423 487 38,000  Level Salt Lake Center
09:16PM 37.9644 -112.3961 296° West 419 482 38,000  Level Salt Lake Center
09:17PM 38.0156 -112.5300 296° West 420 483 38,000  Level Salt Lake Center
09:18PM 38.0631 -112.6664 294° West 423 487 38,000  Level Salt Lake Center
09:19PM 38.1208 -112.8289 294° West 424 488 38,000  Level Salt Lake Center
09:20PM 38.1706 -112.9644 295° West 424 488 38,000  Level Salt Lake Center
09:21PM 38.2217 -113.0986 296° West 425 489 38,000  Level Salt Lake Center
09:22PM 38.2714 -113.2339 295° West 424 488 38,000  Level Salt Lake Center
09:23PM 38.3136 -113.3731 291° West 429 494 38,000  Level Salt Lake Center
09:24PM 38.3075 -113.5122 267° West 404 465 38,000  Level Salt Lake Center
09:25PM 38.2986 -113.6808 266° West 403 464 38,000  Level Salt Lake Center
09:26PM 38.2911 -113.8217 266° West 402 463 38,000  Level Salt Lake Center
09:27PM 38.2831 -113.9617 266° West 401 461 38,000  Level Salt Lake Center
09:28PM 38.2753 -114.1008 266° West 401 461 38,000  Level Salt Lake Center
09:29PM 38.2669 -114.2400 266° West 398 458 38,000  Level Salt Lake Center
09:31PM 38.2575 -114.3800 265° West 398 458 38,000  Level Salt Lake Center
09:32PM 38.2497 -114.5225 266° West 400 460 38,000  Level Salt Lake Center
09:33PM 38.2392 -114.6925 266° West 402 463 38,000  Level Salt Lake Center
09:34PM 38.2297 -114.8361 265° West 404 465 38,000  Level Salt Lake Center
09:35PM 38.2208 -114.9781 265° West 405 466 38,000  Level Salt Lake Center
09:36PM 38.2119 -115.1186 265° West 401 461 38,000  Level Salt Lake Center
09:37PM 38.2014 -115.2581 265° West 399 459 38,000  Level Salt Lake Center
09:38PM 38.1919 -115.4042 265° West 400 460 38,000  Level Salt Lake Center
09:39PM 38.1814 -115.5461 265° West 405 466 38,000  Level Salt Lake Center
09:40PM 38.1711 -115.6869 265° West 402 463 38,000  Level Salt Lake Center
09:41PM 38.1619 -115.8272 265° West 399 459 38,000  Level Salt Lake Center
09:42PM 38.1483 -115.9953 264° West 399 459 38,000  Level Salt Lake Center
09:43PM 38.1389 -116.1358 265° West 400 460 38,000  Level Salt Lake Center
09:44PM 38.1278 -116.2767 264° West 400 460 38,000  Level Salt Lake Center
09:45PM 38.1167 -116.4169 264° West 400 460 38,000  Level Oakland Center
09:46PM 38.1053 -116.5564 264° West 400 460 38,000  Level Oakland Center
09:47PM 38.0944 -116.6953 264° West 396 456 38,000  Level Oakland Center
09:48PM 38.0836 -116.8342 264° West 397 457 38,000  Level Salt Lake Center
09:49PM 38.0719 -116.9742 264° West 397 457 38,000  Level Salt Lake Center
09:50PM 38.0586 -117.1167 263° West 397 457 38,000  Level Oakland Center
09:51PM 38.0433 -117.2650 263° West 408 470 38,000  Level Oakland Center
09:52PM 38.0306 -117.4089 264° West 407 468 38,000  Level Oakland Center
09:53PM 38.0172 -117.5506 263° West 405 466 38,000  Level Oakland Center
09:54PM 38.0028 -117.6922 263° West 405 466 38,000  Level Oakland Center
09:55PM 37.9886 -117.8339 263° West 405 466 38,000  Level Oakland Center
09:56PM 37.9706 -118.0047 262° West 406 467 38,000  Level Oakland Center
09:57PM 37.9564 -118.1481 263° West 407 468 38,000 -480 Level Oakland Center
09:58PM 37.9403 -118.2919 262° West 408 470 37,100 -900 Descending Oakland Center
09:59PM 37.9236 -118.4392 262° West 417 480 36,200 -960 Descending Oakland Center
10:00PM 37.9081 -118.5889 263° West 424 488 35,200 -1,020 Descending Oakland Center
10:01PM 37.8900 -118.7408 261° West 431 496 34,200 -1,020 Descending Oakland Center
10:02PM 37.8783 -118.8947 265° West 434 499 33,200 -960 Descending Oakland Center
10:03PM 37.8583 -119.0475 261° West 438 504 32,300 -600 Descending Oakland Center
10:04PM 37.8400 -119.2036 262° West 442 509 32,000 -180 Descending Oakland Center
10:05PM 37.8236 -119.3533 262° West 440 506 32,000  Level Oakland Center
10:06PM 37.8050 -119.5019 261° West 431 496 32,000  Level Oakland Center
10:07PM 37.7889 -119.6506 262° West 429 494 32,000  Level Oakland Center
10:08PM 37.7664 -119.8300 261° West 429 494 32,000  Level Oakland Center
10:09PM 37.7500 -119.9797 262° West 429 494 32,000 -360 Level Oakland Center
10:10PM 37.7303 -120.1286 261° West 430 495 31,300 -840 Descending Oakland Center
10:11PM 37.7125 -120.2803 262° West 431 496 30,300 -1,020 Descending Oakland Center
10:12PM 37.6928 -120.4336 261° West 435 501 29,300 -1,380 Descending Oakland Center
10:13PM 37.6742 -120.5850 261° West 438 504 27,600 -2,040 Descending Oakland Center
10:14PM 37.6564 -120.7264 261° West 419 482 25,200 -2,340 Descending Oakland Center
10:16PM 37.6386 -120.8631 261° West 402 463 22,900 -2,400 Descending Oakland Center
10:16PM 37.6167 -120.9833 257° West 391 450 20,900 -2,340 Descending Northern Cal TRACON
10:17PM 37.6167 -121.1000 270° West 380 437 18,800 -2,040 Descending Northern Cal TRACON
10:18PM 37.5833 -121.2333 253° West 384 442 16,900 -1,380 Descending Northern Cal TRACON
10:19PM 37.5167 -121.2833 211° Southwest 334 384 16,200 -1,200 Descending Northern Cal TRACON
10:20PM 37.4333 -121.3500 212° Southwest 320 368 14,500 -1,620 Descending Northern Cal TRACON
10:21PM 37.4667 -121.4333 297° West 316 364 12,900 -1,560 Descending Northern Cal TRACON
10:22PM 37.5000 -121.5333 293° West 300 345 11,400 -1,020 Descending Northern Cal TRACON
10:23PM 37.5167 -121.6333 282° West 273 314 10,900 -900 Descending Northern Cal TRACON
10:24PM 37.5000 -121.7000 253° West 258 297 9,700 -1,320 Descending Northern Cal TRACON
10:25PM 37.5000 -121.8000 270° West 259 298 8,500 -900 Descending Northern Cal TRACON
10:26PM 37.4833 -121.8833 256° West 239 275 7,900 -1,080 Descending Northern Cal TRACON
10:27PM 37.5000 -121.9667 284° West 244 281 6,400 -1,440 Descending Northern Cal TRACON
10:28PM 37.5167 -122.0500 284° West 240 276 5,100 -1,080 Descending Northern Cal TRACON
10:29PM 37.5333 -122.1167 288° West 192 221 4,300 -840 Descending Northern Cal TRACON
10:30PM 37.5453 -122.1442 299° West 210 242 3,800 -1,260 Descending Oakland Center
10:31PM 37.5647 -122.2097 291° West 180 207 2,300 -1,200 Descending Oakland Center
10:32PM 37.5789 -122.2600 290° West 166 191 1,400 -720 Descending Oakland Center
10:33PM 37.5917 -122.3081 289° West 155 178 900 -600 Descending Oakland Center
10:34PM 37.6106 -122.3519 299° West 147 169 200 -720 Descending Oakland Center
10:36PM 37.6167 -122.3667 322° Northwest  Level FlightAware Approximate
10:43PM 37.6188 -122.3754 322° Northwest  Level Estimated